createdAt,value
2023-04-26T05:13:10.114Z,3827.5
2023-04-26T05:18:43.709Z,3830.7
2023-04-26T05:24:18.861Z,3831.7
2023-04-26T05:29:54.356Z,3831.7
2023-04-26T05:35:30.299Z,3830.1
2023-04-26T05:41:06.229Z,3828.5
2023-04-26T05:46:42.950Z,3824.4
2023-04-26T05:52:18.750Z,3827.5
2023-04-26T05:57:54.542Z,3828.7
2023-04-26T06:03:32.649Z,3829.9
2023-04-26T06:09:08.479Z,3830.1
2023-04-26T06:14:43.799Z,3833.7
2023-04-26T06:20:19.517Z,3843.3
2023-04-26T06:25:55.253Z,3848.1
2023-04-26T06:31:32.322Z,3842.4
2023-04-26T06:37:08.575Z,3849.5
2023-04-26T06:42:45.240Z,3857.5
2023-04-26T06:48:20.407Z,3858.9
2023-04-26T06:53:57.445Z,3853.2
2023-04-26T06:59:32.494Z,3864.6
2023-04-26T07:05:09.597Z,3882.3
2023-04-26T07:11:07.549Z,3878.8
2023-04-26T07:16:42.069Z,3883
2023-04-26T07:22:18.577Z,3905.9
2023-04-26T07:27:55.442Z,3959.4
2023-04-26T07:33:34.128Z,3934.1
2023-04-26T07:39:11.867Z,3979
2023-04-26T07:44:47.376Z,3975.6
2023-04-26T07:50:24.427Z,3984
2023-04-26T07:56:03.377Z,3950.5
2023-04-26T08:01:40.965Z,3989.7
2023-04-26T08:07:16.045Z,3935.7
2023-04-26T08:12:52.046Z,3939.4
2023-04-26T08:18:29.417Z,3958.2
2023-04-26T08:24:06.228Z,4013.5
2023-04-26T08:29:42.627Z,3954
2023-04-26T08:35:18.278Z,4027
2023-04-26T08:40:53.998Z,4047.6
2023-04-26T08:46:30.122Z,3970.6
2023-04-26T08:52:07.113Z,3971.9
2023-04-26T08:57:42.403Z,3987.3
2023-04-26T09:03:20.539Z,4043.8
2023-04-26T09:08:56.800Z,4065.9
2023-04-26T09:14:32.290Z,4055.2
2023-04-26T09:20:09.827Z,4087
2023-04-26T09:25:47.387Z,4075.8
2023-04-26T09:31:23.674Z,4093
2023-04-26T09:37:00.710Z,4094.9
2023-04-26T09:42:36.457Z,4081.3
2023-04-26T09:48:12.123Z,4024.5
2023-04-26T09:53:47.574Z,4040.6
2023-04-26T09:59:24.391Z,4099.9
2023-04-26T10:05:01.081Z,4122.8
2023-04-26T10:10:59.282Z,4122.2
2023-04-26T10:16:33.288Z,4122.3
2023-04-26T10:22:08.449Z,4139.6
2023-04-26T10:27:44.284Z,4150
2023-04-26T10:33:20.621Z,4140.9
2023-04-26T10:38:56.934Z,4142.9
2023-04-26T10:44:32.140Z,4179
2023-04-26T10:50:08.707Z,4194.4
2023-04-26T10:55:45.155Z,4194.7
2023-04-26T11:01:22.432Z,4188.8
2023-04-26T11:06:58.888Z,4199.9
2023-04-26T11:12:34.499Z,4200.6
2023-04-26T11:18:10.416Z,4200.2
2023-04-26T11:23:45.809Z,4202.6
2023-04-26T11:29:22.128Z,4205.4
2023-04-26T11:34:57.605Z,4204.4
2023-04-26T11:40:34.528Z,4202.9
2023-04-26T11:46:11.545Z,4205.6
2023-04-26T11:51:48.136Z,4204.9
2023-04-26T11:57:25.733Z,4206.1
2023-04-26T12:03:03.187Z,4207.4
2023-04-26T12:08:38.581Z,4210.3
2023-04-26T12:14:14.324Z,4211.6
2023-04-26T12:19:49.986Z,4210.8
2023-04-26T12:25:25.847Z,4187.2
2023-04-26T12:31:02.621Z,4206.8
2023-04-26T12:36:38.332Z,4209.1
2023-04-26T12:42:14.306Z,4200.9
2023-04-26T12:47:50.842Z,4199.1
2023-04-26T12:53:26.258Z,4209.4
2023-04-26T12:59:01.746Z,4210.9
2023-04-26T13:04:44.738Z,4223
2023-04-26T13:10:21.308Z,4196.9
2023-04-26T13:15:57.287Z,4222.3
2023-04-26T13:21:33.417Z,4207.6
2023-04-26T13:27:09.774Z,4218.3
2023-04-26T13:32:47.169Z,4218.2
2023-04-26T13:38:26.204Z,4212.8
2023-04-26T13:44:02.597Z,4201.4
2023-04-26T13:49:40.551Z,4190.2
2023-04-26T13:55:17.037Z,4199.9
2023-04-26T14:00:51.956Z,4197.6
2023-04-26T14:06:26.917Z,4194.7
2023-04-26T14:12:11.118Z,4189.2
2023-04-26T14:17:48.726Z,4184.3
2023-04-26T14:23:23.955Z,4187.2
2023-04-26T14:29:01.191Z,4197.7
2023-04-26T14:34:37.259Z,4206.4
2023-04-26T14:40:12.648Z,4203.7
2023-04-26T14:45:49.451Z,4201.6
2023-04-26T14:51:26.268Z,4202.9
2023-04-26T14:57:01.459Z,4206.9
2023-04-26T15:02:39.105Z,4196
2023-04-26T15:08:19.470Z,4202.6
2023-04-26T15:13:55.349Z,4210.1
2023-04-26T15:19:30.544Z,4202.2
2023-04-26T15:25:05.662Z,4195.9
2023-04-26T15:30:41.261Z,4206.9
2023-04-26T15:36:17.567Z,4214.5
2023-04-26T15:41:53.774Z,4216.5
2023-04-26T15:47:29.741Z,4218.2
2023-04-26T15:53:05.689Z,4214.3
2023-04-26T15:58:43.406Z,4217.1
2023-04-26T16:04:22.371Z,4205.3
2023-04-26T16:09:59.708Z,4202.2
2023-04-26T16:15:35.140Z,4200.2
2023-04-26T16:21:11.132Z,4198.4
2023-04-26T16:26:46.593Z,4201.4
2023-04-26T16:32:22.384Z,4219.3
2023-04-26T16:37:57.807Z,4209.8
2023-04-26T16:43:33.818Z,4215.5
2023-04-26T16:49:10.002Z,4208.4
2023-04-26T16:54:45.065Z,4206.4
2023-04-26T17:00:21.470Z,4203.1
2023-04-26T17:05:56.678Z,4200.4
2023-04-26T17:11:31.834Z,4198.7
2023-04-26T17:17:08.180Z,4198.1
2023-04-26T17:22:43.640Z,4196.4
2023-04-26T17:28:18.884Z,4199.2
2023-04-26T17:33:56.720Z,4203.6
2023-04-26T17:39:32.278Z,4202.1
2023-04-26T17:45:09.184Z,4201.2
2023-04-26T17:51:05.672Z,4196.5
2023-04-26T17:56:41.420Z,4194.7
2023-04-26T18:02:19.433Z,4195.2
2023-04-26T18:07:55.445Z,4193.4
2023-04-26T18:13:31.716Z,4191.5
2023-04-26T18:19:07.260Z,4192.5
2023-04-26T18:24:43.072Z,4193.9
2023-04-26T18:30:19.685Z,4192.9
2023-04-26T18:35:55.229Z,4190.9
2023-04-26T18:41:31.530Z,4193
2023-04-26T18:47:07.133Z,4190.5
2023-04-26T18:52:42.274Z,4190.7
2023-04-26T18:58:18.318Z,4188.3
2023-04-26T19:03:55.735Z,4187.7
2023-04-26T19:10:01.012Z,4187.5
2023-04-26T19:15:37.643Z,4187
2023-04-26T19:21:14.148Z,4189.7
2023-04-26T19:26:50.349Z,4187
2023-04-26T19:32:25.856Z,4183.8
2023-04-26T19:38:01.537Z,4185.3
2023-04-26T19:43:36.775Z,4184.1
2023-04-26T19:49:13.468Z,4187.7
2023-04-26T19:54:49.550Z,4184.3
2023-04-26T20:00:25.332Z,4185.5
2023-04-26T20:06:03.262Z,4185.3
2023-04-26T20:12:01.843Z,4182.3
2023-04-26T20:17:35.894Z,4184.5
2023-04-26T20:23:11.637Z,4181.6
2023-04-26T20:28:48.244Z,4180.1
2023-04-26T20:34:24.140Z,4183.1
2023-04-26T20:39:59.646Z,4181
2023-04-26T20:45:35.741Z,4182
2023-04-26T20:51:11.036Z,4177.5
2023-04-26T20:56:46.633Z,4179.8
2023-04-26T21:02:24.094Z,4183.1
2023-04-26T21:08:02.458Z,4181.5
2023-04-26T21:13:38.772Z,4179.5
